Time;durP1;ratioP1;P1;durP2;ratioP2;P2;SDS_P1;SDS_P2;PMS_P1;PMS_P2;Temp;Humidity;BMP_temperature;BMP_pressure;BME280_temperature;BME280_humidity;BME280_pressure;Samples;Min_cycle;Max_cycle;Signal;HPM_P1;HPM_P2
2022/01/08 00:01:11;;;;;;;28.07;15.40;;;;;;;-4.09;76.81;98425.22;1836360;78;21336;-64
2022/01/08 00:03:37;;;;;;;25.92;16.02;;;;;;;-4.06;76.85;98422.23;1836037;78;20895;-63
2022/01/08 00:06:03;;;;;;;25.70;16.50;;;;;;;-4.07;76.78;98424.04;1836394;78;20872;-61
2022/01/08 00:08:31;;;;;;;22.25;14.60;;;;;;;-4.09;76.76;98413.45;1836116;78;20946;-64
2022/01/08 00:10:59;;;;;;;26.33;16.62;;;;;;;-4.10;76.83;98412.66;1836209;78;21438;-63
2022/01/08 00:13:25;;;;;;;27.20;16.48;;;;;;;-4.12;76.81;98407.30;1836159;78;20816;-59
2022/01/08 00:15:52;;;;;;;25.37;15.88;;;;;;;-4.15;76.92;98400.64;1836217;78;21026;-61
2022/01/08 00:18:19;;;;;;;28.10;16.20;;;;;;;-4.17;76.93;98396.88;1836172;78;20899;-61
2022/01/08 00:20:45;;;;;;;28.70;16.77;;;;;;;-4.17;77.06;98398.19;1836253;78;21379;-61
2022/01/08 00:23:12;;;;;;;28.75;16.15;;;;;;;-4.16;77.07;98398.52;1836487;78;21103;-61
2022/01/08 00:25:39;;;;;;;23.85;14.60;;;;;;;-4.21;77.03;98388.28;1836084;78;20848;-63
2022/01/08 00:28:06;;;;;;;31.33;15.85;;;;;;;-4.28;77.15;98388.23;1836188;78;21446;-61
2022/01/08 00:30:33;;;;;;;31.25;15.50;;;;;;;-4.33;77.18;98386.67;1836155;78;20950;-58
2022/01/08 00:33:00;;;;;;;28.62;16.17;;;;;;;-4.38;77.28;98389.55;1836324;78;21504;-61
2022/01/08 00:35:28;;;;;;;23.22;14.23;;;;;;;-4.42;77.45;98385.66;1836392;78;21152;-63
2022/01/08 00:37:55;;;;;;;27.73;13.43;;;;;;;-4.40;77.61;98389.72;1835761;78;20820;-60
2022/01/08 00:40:23;;;;;;;23.87;13.15;;;;;;;-4.40;77.65;98380.56;1836190;78;20868;-62
2022/01/08 00:42:49;;;;;;;20.62;11.45;;;;;;;-4.41;77.66;98383.38;1836182;78;20824;-64
2022/01/08 00:45:16;;;;;;;27.35;16.45;;;;;;;-4.45;77.72;98379.52;1836212;78;20880;-61
2022/01/08 00:47:43;;;;;;;19.37;11.65;;;;;;;-4.53;77.88;98380.44;1835934;77;22266;-63
2022/01/08 00:50:12;;;;;;;16.60;10.43;;;;;;;-4.56;78.10;98371.66;1835556;78;20832;-62
2022/01/08 00:52:42;;;;;;;18.75;10.70;;;;;;;-4.57;78.23;98371.33;1835811;78;21299;-60
2022/01/08 00:55:10;;;;;;;25.52;12.88;;;;;;;-4.56;78.31;98368.22;1835223;77;20891;-63
2022/01/08 00:57:37;;;;;;;19.82;12.15;;;;;;;-4.57;78.54;98367.92;1835692;78;20899;-60
2022/01/08 01:00:07;;;;;;;22.85;10.78;;;;;;;-4.56;78.55;98362.99;1835759;78;21442;-61
2022/01/08 01:02:35;;;;;;;25.92;11.08;;;;;;;-4.58;78.69;98363.19;1835516;78;20892;-59
2022/01/08 01:05:04;;;;;;;17.20;10.13;;;;;;;-4.56;78.75;98370.84;1835578;78;21466;-59
2022/01/08 01:07:31;;;;;;;24.05;13.13;;;;;;;-4.55;78.75;98369.86;1835546;78;20962;-58
2022/01/08 01:09:58;;;;;;;17.77;9.90;;;;;;;-4.57;78.74;98375.25;1835600;78;20891;-60
2022/01/08 01:12:24;;;;;;;19.27;10.13;;;;;;;-4.63;78.81;98373.39;1835589;78;21701;-62
2022/01/08 01:14:51;;;;;;;20.48;10.78;;;;;;;-4.68;78.96;98371.81;1835387;78;20951;-62
2022/01/08 01:17:18;;;;;;;23.50;10.43;;;;;;;-4.71;79.06;98369.56;1835564;78;20852;-60
2022/01/08 01:19:47;;;;;;;18.57;9.60;;;;;;;-4.75;79.09;98367.02;1835400;78;20915;-59
2022/01/08 01:22:16;;;;;;;18.10;9.30;;;;;;;-4.80;79.19;98368.06;1835872;78;20927;-58
2022/01/08 01:24:42;;;;;;;16.57;9.98;;;;;;;-4.83;79.34;98358.48;1835426;78;21441;-61
2022/01/08 01:30:07;;;;;;;28.02;13.43;;;;;;;-4.91;79.65;98350.25;1835562;78;20947;-62
2022/01/08 01:46:59;;;;;;;24.27;13.00;;;;;;;-5.04;80.16;98338.36;1835562;78;21328;-61
2022/01/08 01:48:41;;;;;;;15.90;9.88;;;;;;;-5.02;80.26;98333.75;1836666;77;20958;-63
2022/01/08 01:51:10;;;;;;;15.72;9.75;;;;;;;-5.03;80.35;98319.06;1838478;78;21710;-62
2022/01/08 01:53:37;;;;;;;19.65;9.93;;;;;;;-5.02;80.41;98323.30;1837546;78;20865;-59
2022/01/08 01:56:04;;;;;;;15.20;9.70;;;;;;;-5.01;80.48;98325.72;1838470;78;20950;-63
2022/01/08 01:58:31;;;;;;;15.85;9.30;;;;;;;-4.94;80.46;98324.48;1838411;78;20962;-63
2022/01/08 02:00:58;;;;;;;16.10;9.05;;;;;;;-4.89;80.41;98320.83;1838522;78;21410;-64
2022/01/08 02:03:25;;;;;;;13.80;8.53;;;;;;;-4.91;80.34;98313.19;1838442;78;21057;-60
2022/01/08 02:05:51;;;;;;;13.50;7.85;;;;;;;-4.92;80.36;98301.59;1838495;78;21473;-63
2022/01/08 02:08:18;;;;;;;17.82;9.50;;;;;;;-4.96;80.37;98292.02;1838479;78;20860;-60
2022/01/08 02:10:45;;;;;;;19.70;9.65;;;;;;;-5.02;80.44;98298.48;1838346;78;20868;-60
2022/01/08 02:13:24;;;;;;;15.35;8.95;;;;;;;-5.05;80.53;98292.31;1838506;78;20987;-62
2022/01/08 02:15:53;;;;;;;13.18;8.23;;;;;;;-5.07;80.64;98291.70;1838703;78;21113;-60
2022/01/08 02:18:25;;;;;;;14.65;7.90;;;;;;;-5.06;80.73;98298.03;1838495;78;20891;-59
2022/01/08 02:20:57;;;;;;;14.58;8.53;;;;;;;-5.04;80.74;98291.34;1838593;78;20923;-60
2022/01/08 02:23:23;;;;;;;12.13;7.50;;;;;;;-5.02;80.81;98289.34;1838455;78;20942;-58
2022/01/08 02:25:50;;;;;;;11.75;7.60;;;;;;;-5.00;80.83;98282.95;1838477;78;20828;-61
2022/01/08 02:28:17;;;;;;;11.95;6.92;;;;;;;-4.96;80.73;98279.45;1838595;77;21852;-58
2022/01/08 02:30:44;;;;;;;23.15;8.08;;;;;;;-5.00;80.72;98279.52;1838406;78;20899;-62
2022/01/08 02:33:11;;;;;;;13.90;7.03;;;;;;;-4.99;80.83;98271.97;1838456;78;20993;-60
2022/01/08 02:35:38;;;;;;;14.35;7.30;;;;;;;-4.95;80.78;98270.63;1838431;78;20833;-62
2022/01/08 02:38:05;;;;;;;14.83;7.28;;;;;;;-4.96;80.79;98267.69;1838680;78;21407;-59
2022/01/08 02:40:35;;;;;;;13.83;7.65;;;;;;;-4.97;80.81;98266.09;1838427;78;21104;-58
2022/01/08 02:43:04;;;;;;;12.68;7.53;;;;;;;-5.00;80.79;98267.76;1838588;78;20982;-60
2022/01/08 02:45:30;;;;;;;11.48;7.62;;;;;;;-5.03;80.90;98258.98;1838327;78;20851;-62
2022/01/08 02:47:58;;;;;;;16.35;11.15;;;;;;;-5.02;80.97;98255.39;1838345;78;20907;-60
2022/01/08 02:50:25;;;;;;;18.57;10.32;;;;;;;-5.04;81.01;98249.02;1836158;77;20864;-60
2022/01/08 02:52:52;;;;;;;13.13;8.68;;;;;;;-5.04;81.08;98255.55;1836277;78;21110;-60
2022/01/08 02:55:20;;;;;;;14.45;9.28;;;;;;;-5.04;81.11;98260.77;1836209;78;20887;-59
2022/01/08 02:57:47;;;;;;;19.60;11.20;;;;;;;-5.06;81.19;98258.03;1836271;78;20883;-61
2022/01/08 03:00:17;;;;;;;17.32;10.03;;;;;;;-5.06;81.30;98259.34;1836232;78;20915;-61
2022/01/08 03:02:46;;;;;;;15.25;8.73;;;;;;;-5.04;81.31;98256.07;1836281;78;20915;-61
2022/01/08 03:05:13;;;;;;;12.85;7.95;;;;;;;-5.05;81.31;98264.40;1836257;78;21169;-60
2022/01/08 03:07:42;;;;;;;17.10;9.48;;;;;;;-5.03;81.35;98264.20;1836189;78;20895;-59
2022/01/08 03:10:15;;;;;;;16.27;8.90;;;;;;;-5.04;81.38;98258.69;1836732;78;20832;-61
2022/01/08 03:12:42;;;;;;;17.90;9.75;;;;;;;-5.01;81.40;98259.59;1836256;78;20907;-64
2022/01/08 03:15:12;;;;;;;16.05;8.10;;;;;;;-4.96;81.41;98263.77;1836284;78;20864;-59
2022/01/08 03:17:39;;;;;;;18.62;9.70;;;;;;;-4.90;81.33;98251.30;1836249;78;21087;-62
2022/01/08 03:20:10;;;;;;;13.48;8.68;;;;;;;-4.88;81.29;98253.22;1836160;78;20894;-65
2022/01/08 03:22:37;;;;;;;14.28;8.43;;;;;;;-4.87;81.23;98256.94;1836248;78;20864;-62
2022/01/08 03:25:05;;;;;;;9.98;6.62;;;;;;;-4.89;81.16;98254.20;1836238;78;20955;-62
2022/01/08 03:27:32;;;;;;;11.50;7.08;;;;;;;-4.89;81.21;98255.02;1836233;78;20876;-60
2022/01/08 03:29:59;;;;;;;11.40;7.22;;;;;;;-4.89;81.11;98245.05;1836250;78;21095;-61
2022/01/08 03:32:26;;;;;;;11.43;7.37;;;;;;;-4.91;81.17;98250.97;1836174;78;20856;-59
2022/01/08 03:34:54;;;;;;;21.85;13.80;;;;;;;-4.92;81.23;98240.19;1836245;78;20950;-61
2022/01/08 03:37:20;;;;;;;15.60;9.93;;;;;;;-4.92;81.16;98238.88;1836188;78;20950;-58
2022/01/08 03:39:47;;;;;;;14.55;8.68;;;;;;;-4.95;81.23;98230.14;1836434;78;20832;-63
2022/01/08 03:42:14;;;;;;;15.32;9.48;;;;;;;-4.99;81.30;98222.34;1836224;78;21105;-62
2022/01/08 03:44:42;;;;;;;14.07;8.80;;;;;;;-5.01;81.41;98221.72;1836044;78;20903;-62
2022/01/08 03:49:58;;;;;;;16.25;8.00;;;;;;;-5.03;81.51;98209.34;1836150;77;21015;-60
2022/01/08 03:52:26;;;;;;;12.63;8.88;;;;;;;-5.08;81.59;98207.78;1836269;78;20947;-58
2022/01/08 03:54:52;;;;;;;15.43;8.38;;;;;;;-5.10;81.72;98196.23;1836208;78;21735;-63
2022/01/08 03:57:19;;;;;;;16.57;9.38;;;;;;;-5.12;81.73;98193.48;1836151;78;20852;-62
2022/01/08 03:59:46;;;;;;;19.60;9.47;;;;;;;-5.14;81.84;98191.56;1836162;78;20906;-59
2022/01/08 04:02:13;;;;;;;14.30;9.15;;;;;;;-5.15;81.92;98188.14;1836165;78;21449;-58
2022/01/08 04:04:40;;;;;;;13.22;8.75;;;;;;;-5.13;82.01;98187.94;1836221;78;20852;-62
2022/01/08 04:07:07;;;;;;;13.35;8.80;;;;;;;-5.13;82.02;98178.80;1836100;78;21064;-58
2022/01/08 04:09:34;;;;;;;14.10;7.90;;;;;;;-5.13;82.09;98176.19;1836354;78;21493;-61
2022/01/08 04:12:04;;;;;;;11.20;8.13;;;;;;;-5.14;82.11;98174.09;1836408;78;20951;-61
2022/01/08 04:14:36;;;;;;;13.22;8.70;;;;;;;-5.18;82.28;98166.83;1836042;78;20919;-63
2022/01/08 04:16:59;;;;;;;13.48;7.78;;;;;;;-5.20;82.44;98163.56;1835222;78;20910;-63
2022/01/08 04:19:26;;;;;;;15.55;8.20;;;;;;;-5.26;82.60;98162.52;1836160;78;21100;-63
2022/01/08 04:24:22;;;;;;;14.43;7.35;;;;;;;-5.30;82.91;98163.09;1836404;78;21446;-58
2022/01/08 04:26:49;;;;;;;10.23;7.05;;;;;;;-5.32;83.14;98158.55;1836167;78;20903;-57
2022/01/08 04:29:16;;;;;;;12.13;7.83;;;;;;;-5.31;83.24;98162.76;1836315;78;20856;-58
2022/01/08 04:31:42;;;;;;;12.33;7.33;;;;;;;-5.31;83.28;98156.23;1836193;78;21093;-60
2022/01/08 04:34:09;;;;;;;13.15;7.17;;;;;;;-5.29;83.38;98152.94;1836309;78;20829;-60
2022/01/08 04:36:36;;;;;;;10.58;6.92;;;;;;;-5.27;83.49;98145.23;1836167;78;20963;-61
2022/01/08 04:39:03;;;;;;;11.83;6.90;;;;;;;-5.24;83.52;98150.58;1836131;78;21485;-59
2022/01/08 04:41:29;;;;;;;10.70;6.67;;;;;;;-5.22;83.64;98144.66;1836206;78;20812;-60
2022/01/08 04:43:56;;;;;;;10.53;7.22;;;;;;;-5.20;83.59;98145.28;1836547;78;21075;-63
2022/01/08 04:46:23;;;;;;;11.00;7.20;;;;;;;-5.18;83.55;98140.70;1836121;78;20901;-64
2022/01/08 04:48:50;;;;;;;12.28;7.08;;;;;;;-5.17;83.57;98146.22;1836080;77;20918;-61
2022/01/08 04:51:17;;;;;;;10.58;7.55;;;;;;;-5.16;83.67;98138.71;1835470;78;20868;-61
2022/01/08 04:53:44;;;;;;;23.55;14.80;;;;;;;-5.15;83.60;98142.43;1835804;78;21477;-57
2022/01/08 04:56:11;;;;;;;11.63;7.72;;;;;;;-5.12;83.59;98137.33;1835574;78;21060;-59
2022/01/08 04:58:40;;;;;;;9.75;6.80;;;;;;;-5.13;83.61;98134.39;1835505;78;20887;-58
2022/01/08 05:01:14;;;;;;;10.80;7.42;;;;;;;-5.14;83.58;98132.80;1835425;78;20828;-62
2022/01/08 05:03:40;;;;;;;12.00;7.47;;;;;;;-5.15;83.64;98126.77;1835586;78;21450;-59
2022/01/08 05:06:08;;;;;;;12.03;7.12;;;;;;;-5.12;83.62;98124.27;1835571;78;20860;-62
2022/01/08 05:08:36;;;;;;;10.40;7.08;;;;;;;-5.09;83.57;98131.25;1835507;78;20903;-59
2022/01/08 05:11:03;;;;;;;11.53;7.12;;;;;;;-5.06;83.52;98132.16;1835515;78;20856;-59
2022/01/08 05:13:30;;;;;;;9.80;6.33;;;;;;;-5.07;83.50;98127.14;1835499;78;20887;-61
2022/01/08 05:15:57;;;;;;;11.40;6.60;;;;;;;-5.06;83.54;98124.81;1835561;78;21406;-64
2022/01/08 05:18:25;;;;;;;11.28;6.92;;;;;;;-5.04;83.49;98135.39;1835444;78;20942;-58
2022/01/08 05:20:58;;;;;;;12.43;8.18;;;;;;;-5.04;83.44;98128.08;1835633;78;21897;-57
2022/01/08 05:23:20;;;;;;;11.08;6.85;;;;;;;-5.06;83.43;98124.81;1834704;77;20820;-63
2022/01/08 05:25:47;;;;;;;8.68;6.20;;;;;;;-5.06;83.54;98127.42;1835573;78;21259;-62
2022/01/08 05:28:13;;;;;;;10.43;6.53;;;;;;;-5.05;83.47;98125.14;1835550;78;20907;-58
2022/01/08 05:30:40;;;;;;;13.35;6.75;;;;;;;-5.06;83.47;98136.08;1835476;78;20883;-63
2022/01/08 05:33:07;;;;;;;8.40;6.10;;;;;;;-5.10;83.48;98117.05;1835752;78;21109;-63
2022/01/08 05:35:34;;;;;;;17.67;9.73;;;;;;;-5.12;83.55;98120.36;1835490;78;20863;-60
2022/01/08 05:38:01;;;;;;;14.33;10.75;;;;;;;-5.13;83.65;98127.87;1835749;78;21499;-60
2022/01/08 05:40:28;;;;;;;19.60;13.72;;;;;;;-5.14;83.61;98129.70;1835505;78;20907;-63
2022/01/08 05:42:57;;;;;;;21.27;11.85;;;;;;;-5.12;83.69;98128.19;1835408;78;20859;-63
2022/01/08 05:45:23;;;;;;;15.72;9.10;;;;;;;-5.11;83.70;98125.91;1835551;78;21347;-64
2022/01/08 05:47:50;;;;;;;11.43;7.53;;;;;;;-5.10;83.70;98135.34;1835680;78;20887;-65
2022/01/08 05:50:17;;;;;;;9.03;6.50;;;;;;;-5.10;83.70;98131.42;1835731;77;20865;-62
2022/01/08 05:52:43;;;;;;;19.12;9.98;;;;;;;-5.09;83.75;98131.25;1836305;78;21322;-65
2022/01/08 05:55:11;;;;;;;21.40;11.65;;;;;;;-5.08;83.68;98133.34;1836377;78;20939;-63
2022/01/08 05:57:37;;;;;;;12.45;8.88;;;;;;;-5.08;83.68;98138.56;1836147;78;21705;-62
2022/01/08 06:00:07;;;;;;;11.53;6.83;;;;;;;-5.10;83.79;98143.17;1836250;78;20942;-58
2022/01/08 06:02:37;;;;;;;8.95;6.47;;;;;;;-5.08;83.79;98139.88;1836054;78;20851;-61
2022/01/08 06:05:05;;;;;;;10.23;6.33;;;;;;;-5.09;83.81;98144.80;1836098;78;21509;-60
2022/01/08 06:07:32;;;;;;;9.33;6.40;;;;;;;-5.07;83.78;98145.42;1836125;78;21438;-60
2022/01/08 06:09:59;;;;;;;8.43;5.90;;;;;;;-5.07;83.78;98143.63;1836125;78;21053;-59
2022/01/08 06:12:26;;;;;;;9.83;6.85;;;;;;;-5.06;83.82;98136.57;1836063;78;20840;-59
2022/01/08 06:14:53;;;;;;;15.38;9.75;;;;;;;-5.06;83.86;98135.27;1836125;78;20903;-61
2022/01/08 06:17:20;;;;;;;9.58;6.33;;;;;;;-5.07;83.94;98132.36;1836221;78;21363;-59
2022/01/08 06:19:47;;;;;;;14.55;8.55;;;;;;;-5.04;83.97;98131.47;1836127;78;21386;-60
2022/01/08 06:22:14;;;;;;;14.95;8.28;;;;;;;-5.00;83.89;98133.22;1836116;78;21112;-60
2022/01/08 06:24:42;;;;;;;14.43;7.70;;;;;;;-4.98;83.89;98132.04;1808788;78;20935;-59
2022/01/08 06:27:09;;;;;;;19.23;10.32;;;;;;;-4.93;83.92;98134.09;1836279;78;21395;-61
2022/01/08 06:29:36;;;;;;;13.68;9.00;;;;;;;-4.89;83.81;98131.39;1836264;78;20895;-62
2022/01/08 06:32:04;;;;;;;13.83;7.92;;;;;;;-4.86;83.78;98133.64;1836503;78;20895;-61
2022/01/08 06:34:32;;;;;;;15.25;7.85;;;;;;;-4.85;83.69;98127.40;1836267;78;21079;-62
2022/01/08 06:36:59;;;;;;;11.63;7.42;;;;;;;-4.84;83.68;98118.58;1836205;78;20825;-63
2022/01/08 06:39:25;;;;;;;9.65;6.97;;;;;;;-4.83;83.62;98124.13;1836343;78;21470;-60
2022/01/08 06:41:52;;;;;;;10.40;7.25;;;;;;;-4.85;83.66;98120.38;1836246;78;20987;-64
2022/01/08 06:44:19;;;;;;;11.75;7.33;;;;;;;-4.82;83.71;98123.11;1836306;78;20820;-61
2022/01/08 06:46:46;;;;;;;13.98;8.98;;;;;;;-4.78;83.67;98128.26;1836383;78;21065;-59
2022/01/08 06:49:14;;;;;;;13.75;8.33;;;;;;;-4.77;83.72;98129.89;1836200;78;20884;-61
2022/01/08 06:51:41;;;;;;;12.03;8.20;;;;;;;-4.72;83.68;98122.28;1835660;77;20903;-61
2022/01/08 06:54:07;;;;;;;14.30;8.20;;;;;;;-4.68;83.63;98114.36;1835635;78;20874;-62
2022/01/08 06:56:36;;;;;;;17.07;8.03;;;;;;;-4.65;83.60;98120.53;1835811;78;21363;-62
2022/01/08 06:59:03;;;;;;;14.53;9.20;;;;;;;-4.64;83.54;98118.20;1835660;78;21098;-58
2022/01/08 07:01:30;;;;;;;10.72;8.30;;;;;;;-4.63;83.57;98118.52;1835546;78;20883;-63
2022/01/08 07:03:57;;;;;;;13.15;8.58;;;;;;;-4.65;83.55;98115.30;1835762;78;20852;-61
2022/01/08 07:06:25;;;;;;;10.30;7.65;;;;;;;-4.65;83.74;98110.07;1835756;78;20915;-61
2022/01/08 07:08:52;;;;;;;15.10;9.70;;;;;;;-4.60;83.75;98122.07;1835667;78;20920;-64
2022/01/08 07:11:19;;;;;;;15.13;8.93;;;;;;;-4.56;83.80;98116.77;1835683;78;21723;-61
2022/01/08 07:13:46;;;;;;;18.60;10.98;;;;;;;-4.51;83.70;98121.41;1835621;78;20939;-63
2022/01/08 07:16:12;;;;;;;18.73;11.93;;;;;;;-4.48;83.66;98123.16;1835561;78;20979;-58
2022/01/08 07:18:39;;;;;;;16.57;11.30;;;;;;;-4.46;83.69;98114.62;1835714;78;20899;-58
2022/01/08 07:21:06;;;;;;;15.68;10.68;;;;;;;-4.42;83.68;98114.53;1835661;78;20964;-61
2022/01/08 07:23:33;;;;;;;15.00;9.43;;;;;;;-4.37;83.58;98105.62;1835659;78;21104;-58
2022/01/08 07:26:01;;;;;;;14.63;8.75;;;;;;;-4.36;83.63;98112.45;1835474;78;20982;-61
2022/01/08 07:28:28;;;;;;;11.38;7.83;;;;;;;-4.28;83.71;98116.22;1835740;78;20864;-58
2022/01/08 07:30:55;;;;;;;10.55;8.40;;;;;;;-4.22;83.40;98112.03;1835642;78;20860;-60
2022/01/08 07:33:21;;;;;;;16.48;10.93;;;;;;;-4.20;83.45;98112.16;1835967;78;20990;-60
2022/01/08 07:35:48;;;;;;;16.90;10.00;;;;;;;-4.16;83.45;98113.38;1835678;78;21386;-60
2022/01/08 07:38:17;;;;;;;16.40;8.83;;;;;;;-4.09;83.33;98106.04;1835577;78;20845;-62
2022/01/08 07:40:43;;;;;;;13.18;8.88;;;;;;;-4.09;83.32;98101.63;1835728;78;20966;-63
2022/01/08 07:43:10;;;;;;;9.93;7.70;;;;;;;-4.06;83.25;98105.17;1835641;78;20899;-63
2022/01/08 07:45:37;;;;;;;13.00;8.45;;;;;;;-4.01;83.25;98105.89;1835691;78;20828;-62
2022/01/08 07:48:05;;;;;;;24.12;15.13;;;;;;;-3.95;83.21;98103.78;1835540;78;21898;-59
2022/01/08 07:50:31;;;;;;;23.05;14.28;;;;;;;-3.88;83.06;98105.92;1835596;77;20947;-61
2022/01/08 07:52:58;;;;;;;12.13;8.90;;;;;;;-3.85;82.86;98104.23;1835726;78;20959;-58
2022/01/08 07:55:24;;;;;;;14.50;9.00;;;;;;;-3.85;82.66;98108.16;1835619;78;20951;-59
2022/01/08 07:57:51;;;;;;;13.85;9.65;;;;;;;-3.86;82.74;98099.50;1835649;78;21481;-59
2022/01/08 08:00:18;;;;;;;19.65;12.10;;;;;;;-3.86;82.66;98094.78;1835603;78;21106;-61
2022/01/08 08:02:45;;;;;;;13.22;8.80;;;;;;;-3.83;82.83;98089.14;1835575;78;21434;-59
2022/01/08 08:05:12;;;;;;;13.08;8.25;;;;;;;-3.79;82.57;98094.30;1835629;78;20994;-59
2022/01/08 08:07:39;;;;;;;11.50;9.05;;;;;;;-3.79;82.59;98089.85;1835607;78;20983;-59
2022/01/08 08:10:10;;;;;;;11.95;8.95;;;;;;;-3.78;82.71;98091.98;1835652;78;21426;-63
2022/01/08 08:12:39;;;;;;;14.28;7.92;;;;;;;-3.75;82.68;98088.97;1835911;78;21087;-59
2022/01/08 08:15:09;;;;;;;13.53;8.55;;;;;;;-3.73;82.68;98079.92;1835437;78;20888;-63
2022/01/08 08:17:36;;;;;;;12.80;9.05;;;;;;;-3.71;82.73;98079.71;1835506;78;20856;-59
2022/01/08 08:20:07;;;;;;;13.93;9.03;;;;;;;-3.68;82.83;98088.48;1835469;78;20954;-62
2022/01/08 08:22:35;;;;;;;11.00;7.78;;;;;;;-3.61;82.86;98084.89;1835499;78;20962;-59
2022/01/08 08:25:03;;;;;;;10.15;7.80;;;;;;;-3.59;82.69;98093.34;1835595;78;21033;-60
2022/01/08 08:27:31;;;;;;;11.53;8.05;;;;;;;-3.56;82.63;98103.41;1835539;78;20856;-62
2022/01/08 08:29:58;;;;;;;10.58;8.05;;;;;;;-3.54;82.73;98095.37;1835608;78;21407;-64
2022/01/08 08:32:25;;;;;;;14.87;10.05;;;;;;;-3.48;82.76;98091.95;1835577;78;20927;-64
2022/01/08 08:34:51;;;;;;;13.85;9.05;;;;;;;-3.47;82.65;98097.00;1835637;78;20947;-65
2022/01/08 08:37:18;;;;;;;11.28;8.93;;;;;;;-3.38;82.77;98098.92;1835583;78;21109;-63
2022/01/08 08:39:45;;;;;;;16.20;9.58;;;;;;;-3.26;82.79;98093.40;1835517;78;20931;-62
2022/01/08 08:42:12;;;;;;;15.10;9.68;;;;;;;-3.14;82.60;98095.73;1835590;78;20935;-59
2022/01/08 08:44:39;;;;;;;15.28;11.03;;;;;;;-2.96;82.65;98099.86;1835574;78;20825;-62
2022/01/08 08:47:06;;;;;;;15.88;10.08;;;;;;;-2.73;82.65;98097.34;1835514;78;20915;-63
2022/01/08 08:49:33;;;;;;;15.30;10.80;;;;;;;-2.54;82.15;98093.36;1835556;78;21114;-59
2022/01/08 08:52:00;;;;;;;14.78;10.18;;;;;;;-2.41;82.20;98088.61;1835446;77;20891;-61
2022/01/08 08:54:27;;;;;;;17.80;12.15;;;;;;;-2.28;81.81;98080.69;1835587;78;20891;-62
2022/01/08 08:56:54;;;;;;;12.75;10.32;;;;;;;-2.20;81.54;98072.10;1835576;78;21323;-63
2022/01/08 08:59:20;;;;;;;18.70;12.50;;;;;;;-2.13;81.25;98065.51;1835609;78;20860;-62
2022/01/08 09:01:47;;;;;;;17.65;11.57;;;;;;;-2.02;81.23;98062.73;1835559;78;21111;-59
2022/01/08 09:04:13;;;;;;;10.75;8.83;;;;;;;-1.92;80.37;98047.34;1835522;78;21462;-60
2022/01/08 09:06:40;;;;;;;17.77;12.43;;;;;;;-1.88;79.79;98055.09;1835574;78;20855;-64
2022/01/08 09:09:07;;;;;;;14.28;10.43;;;;;;;-1.86;79.96;98063.05;1835923;78;20863;-64
2022/01/08 09:11:34;;;;;;;12.35;9.28;;;;;;;-1.79;79.51;98060.42;1835504;78;20892;-62
2022/01/08 09:14:01;;;;;;;15.78;10.88;;;;;;;-1.67;79.39;98064.78;1835540;78;21099;-58
2022/01/08 09:16:27;;;;;;;16.73;11.95;;;;;;;-1.57;78.81;98060.38;1835736;78;20895;-60
2022/01/08 09:18:54;;;;;;;14.43;9.68;;;;;;;-1.54;78.64;98059.47;1835669;78;20954;-63
2022/01/08 09:21:21;;;;;;;14.83;10.13;;;;;;;-1.53;78.28;98046.61;1835520;78;20940;-62
2022/01/08 09:23:48;;;;;;;10.98;9.60;;;;;;;-1.53;78.28;98036.10;1835670;78;20832;-63
2022/01/08 09:26:16;;;;;;;14.03;9.98;;;;;;;-1.53;78.09;98034.79;1835613;78;39277;-65
2022/01/08 09:28:44;;;;;;;14.90;9.68;;;;;;;-1.58;78.05;98033.83;1835548;78;20900;-60
2022/01/08 09:31:11;;;;;;;12.73;9.00;;;;;;;-1.62;78.01;98029.50;1835564;78;20820;-59
2022/01/08 09:33:38;;;;;;;14.90;10.28;;;;;;;-1.63;77.87;98026.59;1814882;78;20891;-63
2022/01/08 09:36:06;;;;;;;11.97;8.98;;;;;;;-1.68;78.10;98032.17;1835871;78;20903;-65
2022/01/08 09:38:33;;;;;;;12.78;9.88;;;;;;;-1.66;78.14;98014.38;1835450;78;22295;-59
2022/01/08 09:41:00;;;;;;;13.38;9.20;;;;;;;-1.60;78.10;98025.37;1835454;78;21318;-60
2022/01/08 09:43:26;;;;;;;18.45;11.53;;;;;;;-1.54;78.26;98017.94;1835743;78;20887;-59
2022/01/08 09:45:53;;;;;;;16.20;11.88;;;;;;;-1.44;78.41;98023.00;1835816;78;20940;-60
2022/01/08 09:48:19;;;;;;;13.70;10.75;;;;;;;-1.31;78.49;98023.92;1835573;78;20883;-63
2022/01/08 09:50:46;;;;;;;12.65;9.53;;;;;;;-1.23;78.50;98015.78;1835606;76;21096;-60
2022/01/08 09:53:13;;;;;;;17.92;11.25;;;;;;;-1.18;78.01;98013.33;1836093;78;21469;-62
2022/01/08 09:55:41;;;;;;;16.12;10.68;;;;;;;-1.20;77.92;98012.20;1836141;78;20820;-62
2022/01/08 09:58:07;;;;;;;16.17;9.68;;;;;;;-1.20;77.76;98018.00;1836098;78;20902;-62
2022/01/08 10:00:37;;;;;;;17.85;13.15;;;;;;;-1.21;77.85;98014.55;1835984;78;20915;-65
2022/01/08 10:03:22;;;;;;;13.03;10.43;;;;;;;-1.17;77.83;98012.28;1836015;78;21081;-65
2022/01/08 10:05:54;;;;;;;14.28;9.88;;;;;;;-1.12;77.68;98020.34;1836221;78;20856;-60
2022/01/08 10:08:27;;;;;;;13.18;9.45;;;;;;;-1.05;77.55;98015.33;1836117;78;21379;-62
2022/01/08 10:11:00;;;;;;;15.80;9.85;;;;;;;-1.02;77.43;98016.22;1836300;78;20863;-60
2022/01/08 10:13:32;;;;;;;13.45;10.48;;;;;;;-1.02;77.41;98010.14;1836337;78;20876;-62
2022/01/08 10:18:46;;;;;;;17.65;12.23;;;;;;;-0.93;77.55;97998.33;1836209;78;20928;-60
2022/01/08 10:21:21;;;;;;;15.98;11.50;;;;;;;-0.82;77.52;97993.66;1836091;78;20916;-60
2022/01/08 10:23:52;;;;;;;15.58;11.95;;;;;;;-0.70;77.35;97995.36;1836308;78;20848;-60
2022/01/08 10:26:21;;;;;;;14.70;10.68;;;;;;;-0.63;76.95;97993.97;1835835;78;20856;-65
2022/01/08 10:28:54;;;;;;;14.00;10.72;;;;;;;-0.65;76.96;97993.39;1836200;78;21042;-66
2022/01/08 10:31:27;;;;;;;15.58;11.63;;;;;;;-0.68;77.10;97983.30;1835641;78;20895;-63
2022/01/08 10:34:08;;;;;;;13.68;9.85;;;;;;;-0.65;77.28;97988.13;1836330;78;21387;-62
2022/01/08 10:36:40;;;;;;;15.40;10.25;;;;;;;-0.62;76.74;97977.17;1829543;78;21371;-64
2022/01/08 10:39:22;;;;;;;12.95;9.90;;;;;;;-0.67;76.68;97974.39;1835975;78;20832;-64
2022/01/08 11:06:01;;;;;;;18.05;11.57;;;;;;;-0.86;77.81;97953.05;1836120;78;20907;-61
2022/01/08 11:08:28;;;;;;;15.70;11.90;;;;;;;-0.86;78.06;97955.68;1836062;78;21094;-60
2022/01/08 11:10:54;;;;;;;14.63;11.22;;;;;;;-0.84;78.22;97942.61;1836305;78;20863;-65
2022/01/08 11:13:22;;;;;;;14.80;10.95;;;;;;;-0.79;78.27;97940.63;1808745;78;20943;-60
2022/01/08 11:15:51;;;;;;;18.73;12.85;;;;;;;-0.80;78.19;97935.87;1836221;78;20864;-63
2022/01/08 11:18:19;;;;;;;18.10;11.60;;;;;;;-0.79;78.39;97933.55;1836248;78;20860;-60
2022/01/08 11:20:46;;;;;;;14.58;11.08;;;;;;;-0.75;78.43;97928.64;1836216;78;21052;-65
2022/01/08 11:23:14;;;;;;;15.10;12.07;;;;;;;-0.72;78.25;97935.59;1836164;78;20903;-62
2022/01/08 11:25:42;;;;;;;16.37;11.90;;;;;;;-0.70;78.26;97930.11;1836134;78;20939;-64
2022/01/08 11:28:14;;;;;;;15.53;11.08;;;;;;;-0.70;78.26;97916.95;1836431;78;21387;-61
2022/01/08 11:30:47;;;;;;;18.10;13.00;;;;;;;-0.68;78.29;97919.39;1836305;78;20851;-62
2022/01/08 11:33:20;;;;;;;15.45;10.93;;;;;;;-0.68;78.31;97922.80;1833169;78;21105;-59
2022/01/08 11:35:48;;;;;;;16.02;10.25;;;;;;;-0.65;78.32;97915.78;1836030;78;20891;-65
2022/01/08 11:38:18;;;;;;;13.78;10.50;;;;;;;-0.65;78.14;97918.42;1836230;78;20864;-60
2022/01/08 11:40:48;;;;;;;19.60;14.60;;;;;;;-0.67;78.27;97914.40;1836379;78;21377;-63
2022/01/08 11:43:18;;;;;;;23.62;17.25;;;;;;;-0.70;78.42;97905.93;1836253;78;20954;-64
2022/01/08 11:46:00;;;;;;;20.88;16.23;;;;;;;-0.69;78.39;97905.42;1835856;78;21668;-60
2022/01/08 11:48:34;;;;;;;26.73;19.52;;;;;;;-0.71;78.40;97902.99;1836472;78;20824;-61
2022/01/08 11:51:02;;;;;;;26.45;19.50;;;;;;;-0.73;78.53;97905.58;1836175;77;20863;-62
2022/01/08 11:53:33;;;;;;;19.07;14.73;;;;;;;-0.75;78.61;97887.88;1836114;78;20911;-61
2022/01/08 11:56:04;;;;;;;17.02;13.85;;;;;;;-0.76;78.58;97882.34;1836161;78;20997;-62
2022/01/08 11:58:36;;;;;;;15.93;11.50;;;;;;;-0.76;78.65;97884.97;1836245;78;21099;-60
2022/01/08 12:01:12;;;;;;;16.67;12.78;;;;;;;-0.68;78.94;97882.02;1836320;78;20946;-62
2022/01/08 12:03:51;;;;;;;17.98;12.55;;;;;;;-0.49;78.88;97888.87;1809338;78;20942;-59
2022/01/08 12:06:31;;;;;;;17.90;11.85;;;;;;;-0.29;78.68;97880.21;1834835;78;21398;-60
2022/01/08 12:12:04;;;;;;;12.70;9.63;;;;;;;-0.16;77.14;97882.64;1836511;78;21678;-62
2022/01/08 12:14:38;;;;;;;13.83;9.90;;;;;;;-0.25;77.02;97877.41;1836176;78;20863;-63
2022/01/08 12:17:20;;;;;;;16.15;10.72;;;;;;;-0.30;77.28;97873.33;1836368;78;20942;-64